createdAt,value
2018-11-06T00:01:19.490Z,19.17
2018-11-06T00:06:42.370Z,19.33
2018-11-06T00:09:15.457Z,19.77
2018-11-06T00:14:19.670Z,20.87
2018-11-06T00:16:52.638Z,20.70
2018-11-06T00:19:25.567Z,20.07
2018-11-06T00:21:58.605Z,19.17
2018-11-06T00:24:31.894Z,20.82
2018-11-06T00:27:04.870Z,19.00
2018-11-06T00:29:37.855Z,20.73
2018-11-06T00:32:10.622Z,20.47
2018-11-06T00:37:19.513Z,22.27
2018-11-06T00:42:23.770Z,19.70
2018-11-06T00:44:56.806Z,19.17
2018-11-06T00:47:29.633Z,19.50
2018-11-06T00:50:02.509Z,20.27
2018-11-06T00:52:35.250Z,19.90
2018-11-06T00:55:10.281Z,20.63
2018-11-06T00:57:44.380Z,19.87
2018-11-06T01:02:52.644Z,19.77
2018-11-06T01:05:26.145Z,21.23
2018-11-06T01:07:59.152Z,19.90
2018-11-06T01:10:32.077Z,19.92
2018-11-06T01:13:05.143Z,19.42
2018-11-06T01:15:38.107Z,19.45
2018-11-06T01:18:11.212Z,20.10
2018-11-06T01:20:44.328Z,19.07
2018-11-06T01:23:17.459Z,18.47
2018-11-06T01:28:21.804Z,18.67
2018-11-06T01:30:54.677Z,18.17
2018-11-06T01:33:27.421Z,18.83
2018-11-06T01:38:31.503Z,18.10
2018-11-06T01:41:04.124Z,18.30
2018-11-06T01:43:37.097Z,18.48
2018-11-06T01:46:10.402Z,18.17
2018-11-06T01:51:14.532Z,18.07
2018-11-06T01:53:47.457Z,18.10
2018-11-06T01:58:51.637Z,17.87
2018-11-06T02:01:24.521Z,16.37
2018-11-06T02:03:57.397Z,18.40
2018-11-06T02:09:01.973Z,17.33
2018-11-06T02:11:35.147Z,17.63
2018-11-06T02:14:08.508Z,18.15
2018-11-06T02:16:41.452Z,16.80
2018-11-06T02:21:46.110Z,19.35
2018-11-06T02:24:18.796Z,17.80
2018-11-06T02:26:51.631Z,17.90
2018-11-06T02:29:24.430Z,17.87
2018-11-06T02:34:28.652Z,16.40
2018-11-06T02:37:01.612Z,17.63
2018-11-06T02:39:34.450Z,17.10
2018-11-06T02:44:38.638Z,17.30
2018-11-06T02:47:11.748Z,17.20
2018-11-06T02:49:44.662Z,16.40
2018-11-06T02:52:17.615Z,17.60
2018-11-06T02:54:50.503Z,17.43
2018-11-06T02:57:23.437Z,17.20
2018-11-06T03:02:28.118Z,17.17
2018-11-06T03:05:01.099Z,15.75
2018-11-06T03:07:34.102Z,16.33
2018-11-06T03:10:07.261Z,17.20
2018-11-06T03:12:41.257Z,15.63
2018-11-06T03:15:14.987Z,16.13
2018-11-06T03:17:47.786Z,16.53
2018-11-06T03:20:20.808Z,15.70
2018-11-06T03:22:53.631Z,16.43
2018-11-06T03:25:26.465Z,15.27
2018-11-06T03:30:30.799Z,16.27
2018-11-06T03:33:03.650Z,15.17
2018-11-06T03:35:36.663Z,15.37
2018-11-06T03:38:09.610Z,16.27
2018-11-06T03:40:42.541Z,16.27
2018-11-06T03:43:15.464Z,16.07
2018-11-06T03:48:19.636Z,16.17
2018-11-06T03:50:52.490Z,16.43
2018-11-06T03:55:56.805Z,16.43
2018-11-06T03:58:29.620Z,15.80
2018-11-06T04:01:02.601Z,16.93
2018-11-06T04:03:35.584Z,15.48
2018-11-06T04:06:08.631Z,15.93
2018-11-06T04:08:41.511Z,17.67
2018-11-06T04:11:14.448Z,16.70
2018-11-06T04:16:18.494Z,16.53
2018-11-06T04:21:30.631Z,16.93
2018-11-06T04:24:03.494Z,35.03
2018-11-06T04:26:37.407Z,30.33
2018-11-06T04:36:45.643Z,15.20
2018-11-06T04:39:18.478Z,14.17
2018-11-06T04:41:51.488Z,15.73
2018-11-06T04:44:24.414Z,15.27
2018-11-06T04:49:29.012Z,29.53
2018-11-06T04:52:01.806Z,21.97
2018-11-06T04:54:34.677Z,14.50
2018-11-06T04:57:07.662Z,15.33
2018-11-06T04:59:40.595Z,14.37
2018-11-06T05:02:13.584Z,15.43
2018-11-06T05:07:17.694Z,15.73
2018-11-06T05:09:50.634Z,14.90
2018-11-06T05:12:23.485Z,16.23
2018-11-06T05:17:27.724Z,15.33
2018-11-06T05:20:00.656Z,15.07
2018-11-06T05:22:33.436Z,15.60
2018-11-06T05:27:38.050Z,18.57
2018-11-06T05:30:12.568Z,14.65
2018-11-06T05:32:45.832Z,15.63
2018-11-06T05:35:18.644Z,14.70
2018-11-06T05:37:51.674Z,14.93
2018-11-06T05:41:16.990Z,15.97
2018-11-06T05:43:50.141Z,15.23
2018-11-06T05:46:23.113Z,14.83
2018-11-06T05:48:55.907Z,14.20
2018-11-06T05:51:29.258Z,14.43
2018-11-06T05:54:02.491Z,13.55
2018-11-06T05:58:48.678Z,15.63
2018-11-06T06:01:21.525Z,14.97
2018-11-06T06:06:26.160Z,15.07
2018-11-06T06:08:59.134Z,15.70
2018-11-06T06:11:32.131Z,16.47
2018-11-06T06:14:05.162Z,15.93
2018-11-06T06:16:39.208Z,15.48
2018-11-06T06:21:58.265Z,15.55
2018-11-06T06:24:31.339Z,15.67
2018-11-06T06:27:04.470Z,15.10
2018-11-06T06:32:08.973Z,13.93
2018-11-06T06:34:41.708Z,14.30
2018-11-06T06:39:41.995Z,13.90
2018-11-06T06:42:14.783Z,13.53
2018-11-06T06:44:48.149Z,13.03
2018-11-06T06:47:27.424Z,13.62
2018-11-06T06:50:00.439Z,13.23
2018-11-06T06:52:34.261Z,12.50
2018-11-06T06:55:11.460Z,13.20
2018-11-06T07:00:22.932Z,12.97
2018-11-06T07:02:56.130Z,12.40
2018-11-06T07:05:30.268Z,12.77
2018-11-06T07:08:03.402Z,12.20
2018-11-06T07:13:08.612Z,12.10
2018-11-06T07:18:12.636Z,12.18
2018-11-06T07:20:45.679Z,11.70
2018-11-06T07:23:18.633Z,12.63
2018-11-06T07:25:51.629Z,14.77
2018-11-06T07:28:24.548Z,11.30
2018-11-06T07:30:57.760Z,11.23
2018-11-06T07:33:30.641Z,15.73
2018-11-06T07:36:03.630Z,10.80
2018-11-06T07:38:36.672Z,11.93
2018-11-06T07:41:09.736Z,10.23
2018-11-06T07:43:42.700Z,10.80
2018-11-06T07:46:15.637Z,10.90
2018-11-06T07:48:48.639Z,10.45
2018-11-06T07:51:21.648Z,12.97
2018-11-06T07:53:54.643Z,13.60
2018-11-06T07:56:27.678Z,9.87
2018-11-06T07:59:00.582Z,11.93
2018-11-06T08:04:05.032Z,10.57
2018-11-06T08:06:37.632Z,9.13
2018-11-06T08:09:12.596Z,9.63
2018-11-06T08:14:17.187Z,8.73
2018-11-06T08:16:50.380Z,9.03
2018-11-06T08:21:55.129Z,9.43
2018-11-06T08:24:28.264Z,9.50
2018-11-06T08:27:01.454Z,9.67
2018-11-06T08:32:06.723Z,9.63
2018-11-06T08:34:39.497Z,9.93
2018-11-06T08:39:43.826Z,10.07
2018-11-06T08:42:17.159Z,9.47
2018-11-06T08:44:50.130Z,9.63
2018-11-06T08:47:23.262Z,9.30
2018-11-06T08:49:56.131Z,9.73
2018-11-06T08:52:29.121Z,10.48
2018-11-06T08:55:02.230Z,9.73
2018-11-06T08:57:36.596Z,9.40
2018-11-06T09:00:13.012Z,15.20
2018-11-06T09:02:47.267Z,15.70
2018-11-06T09:05:20.634Z,10.27
2018-11-06T09:07:53.667Z,9.40
2018-11-06T09:10:26.634Z,9.23
2018-11-06T09:12:59.822Z,10.07
2018-11-06T09:15:33.113Z,11.20
2018-11-06T09:18:07.249Z,13.65
2018-11-06T09:20:40.398Z,9.58
2018-11-06T09:25:46.259Z,10.32
2018-11-06T09:28:19.469Z,10.33
2018-11-06T09:33:23.675Z,11.17
2018-11-06T09:35:56.474Z,11.23
2018-11-06T09:38:29.406Z,10.80
2018-11-06T09:43:34.712Z,12.43
2018-11-06T09:46:07.632Z,12.80
2018-11-06T09:48:40.693Z,12.63
2018-11-06T09:51:13.669Z,12.17
2018-11-06T09:53:46.640Z,12.43
2018-11-06T09:56:19.674Z,13.40
2018-11-06T09:58:52.647Z,12.43
2018-11-06T10:01:25.655Z,12.33
2018-11-06T10:03:58.682Z,13.13
2018-11-06T10:08:52.657Z,12.03
2018-11-06T10:11:25.601Z,13.20
2018-11-06T10:13:58.476Z,12.88
2018-11-06T10:19:02.985Z,13.10
2018-11-06T10:21:36.226Z,12.68
2018-11-06T10:24:09.549Z,13.10
2018-11-06T10:26:42.655Z,12.53
2018-11-06T10:29:15.676Z,13.27
2018-11-06T10:31:48.634Z,11.87
2018-11-06T10:34:21.647Z,13.07
2018-11-06T10:36:54.622Z,12.33
2018-11-06T10:39:27.870Z,12.27
2018-11-06T10:42:00.933Z,12.70
2018-11-06T10:44:34.144Z,12.10
2018-11-06T10:47:10.457Z,12.10
2018-11-06T10:52:15.420Z,12.05
2018-11-06T10:57:20.122Z,11.63
2018-11-06T10:59:53.202Z,11.20
2018-11-06T11:02:43.321Z,11.95
2018-11-06T11:05:16.256Z,12.07
2018-11-06T11:07:49.193Z,13.13
2018-11-06T11:10:22.268Z,11.25
2018-11-06T11:12:55.529Z,11.80
2018-11-06T11:15:28.464Z,11.83
2018-11-06T11:18:01.459Z,11.90
2018-11-06T11:20:34.542Z,11.15
2018-11-06T11:23:08.120Z,12.30
2018-11-06T11:25:41.189Z,11.27
2018-11-06T11:28:14.267Z,11.67
2018-11-06T11:30:47.413Z,14.28
2018-11-06T11:35:52.173Z,15.30
2018-11-06T11:38:27.124Z,10.53
2018-11-06T11:41:00.266Z,10.87
2018-11-06T11:43:33.170Z,10.40
2018-11-06T11:46:07.381Z,10.53
2018-11-06T11:51:12.650Z,10.90
2018-11-06T11:53:45.635Z,10.37
2018-11-06T11:59:10.662Z,10.60
2018-11-06T12:01:43.619Z,11.23
2018-11-06T12:04:16.644Z,10.37
2018-11-06T12:06:49.510Z,11.73
2018-11-06T12:09:22.483Z,11.30
2018-11-06T12:11:55.437Z,12.27
2018-11-06T12:14:28.630Z,13.25
2018-11-06T12:17:01.612Z,12.07
2018-11-06T12:19:34.656Z,11.63
2018-11-06T12:22:08.120Z,10.93
2018-11-06T12:24:41.423Z,11.47
2018-11-06T12:27:14.358Z,11.70
2018-11-06T12:29:47.485Z,12.77
2018-11-06T12:34:51.644Z,11.93
2018-11-06T12:37:24.485Z,11.07
2018-11-06T12:39:57.412Z,11.97
2018-11-06T12:42:30.563Z,12.47
2018-11-06T12:45:03.442Z,12.80
2018-11-06T12:47:36.498Z,12.70
2018-11-06T12:50:10.453Z,17.43
2018-11-06T12:55:20.983Z,12.73
2018-11-06T12:57:54.151Z,12.67
2018-11-06T13:00:30.408Z,12.88
2018-11-06T13:05:34.643Z,12.30
2018-11-06T13:08:07.635Z,13.18
2018-11-06T13:10:40.622Z,13.90
2018-11-06T13:13:13.629Z,13.17
2018-11-06T13:15:47.314Z,14.00
2018-11-06T13:18:20.457Z,13.25
2018-11-06T13:20:53.450Z,13.05
2018-11-06T13:24:21.451Z,12.90
2018-11-06T13:29:26.114Z,13.00
2018-11-06T13:31:59.239Z,13.53
2018-11-06T13:34:39.247Z,13.20
2018-11-06T13:37:12.448Z,13.43
2018-11-06T13:39:45.461Z,15.03
2018-11-06T13:42:18.412Z,15.03
2018-11-06T13:47:23.387Z,13.90
2018-11-06T13:52:27.636Z,16.17
2018-11-06T13:55:00.623Z,16.50
2018-11-06T13:57:33.655Z,16.17
2018-11-06T14:00:08.102Z,15.80
2018-11-06T14:02:41.181Z,16.10
2018-11-06T14:05:14.487Z,16.70
2018-11-06T14:07:47.443Z,17.00
2018-11-06T14:12:52.112Z,15.90
2018-11-06T14:15:25.249Z,17.00
2018-11-06T14:17:58.432Z,17.35
2018-11-06T14:20:31.419Z,17.60
2018-11-06T14:25:35.971Z,18.13
2018-11-06T14:28:09.114Z,17.47
2018-11-06T14:30:43.144Z,17.60
2018-11-06T14:33:16.193Z,17.10
2018-11-06T14:35:50.200Z,17.45
2018-11-06T14:38:23.417Z,17.95
2018-11-06T14:43:27.896Z,18.92
2018-11-06T14:46:01.041Z,17.13
2018-11-06T14:48:34.558Z,17.00
2018-11-06T14:53:39.647Z,17.50
2018-11-06T14:56:12.625Z,17.77
2018-11-06T14:58:45.612Z,16.87
2018-11-06T15:01:18.464Z,17.43
2018-11-06T15:03:51.390Z,17.63
2018-11-06T15:08:55.902Z,19.07
2018-11-06T15:11:29.066Z,17.50
2018-11-06T15:14:02.145Z,18.80
2018-11-06T15:16:35.384Z,24.13
2018-11-06T15:19:08.400Z,31.10
2018-11-06T15:21:41.477Z,25.23
2018-11-06T15:26:45.657Z,19.90
2018-11-06T15:29:18.617Z,20.17
2018-11-06T15:31:51.387Z,19.50
2018-11-06T15:39:28.352Z,25.08
2018-11-06T15:42:02.347Z,19.90
2018-11-06T15:44:35.420Z,21.20
2018-11-06T15:49:40.243Z,24.00
2018-11-06T15:52:13.098Z,31.13
2018-11-06T15:54:47.225Z,27.02
2018-11-06T15:57:23.361Z,21.50
2018-11-06T15:59:56.409Z,22.80
2018-11-06T16:05:00.821Z,24.27
2018-11-06T16:07:33.632Z,23.40
2018-11-06T16:10:07.666Z,20.43
2018-11-06T16:12:40.653Z,22.95
2018-11-06T16:15:13.642Z,23.00
2018-11-06T16:17:46.624Z,23.43
2018-11-06T16:20:20.976Z,22.03
2018-11-06T16:22:54.092Z,24.07
2018-11-06T16:25:27.142Z,22.98
2018-11-06T16:28:00.156Z,25.43
2018-11-06T16:30:35.111Z,24.18
2018-11-06T16:33:08.402Z,23.85
2018-11-06T16:35:41.430Z,24.90
2018-11-06T16:40:46.159Z,25.43
2018-11-06T16:43:19.111Z,25.08
2018-11-06T16:45:52.096Z,24.50
2018-11-06T16:48:26.323Z,27.37
2018-11-06T16:50:59.396Z,24.43
2018-11-06T16:56:03.635Z,29.37
2018-11-06T17:03:13.116Z,27.37
2018-11-06T17:05:47.084Z,27.67
2018-11-06T17:08:20.241Z,29.32
2018-11-06T17:10:53.250Z,27.83
2018-11-06T17:13:27.399Z,26.57
2018-11-06T17:18:31.954Z,26.40
2018-11-06T17:21:05.239Z,26.07
2018-11-06T17:23:38.109Z,25.67
2018-11-06T17:26:11.129Z,26.00
2018-11-06T17:28:44.089Z,29.65
2018-11-06T17:31:17.113Z,30.30
2018-11-06T17:33:51.189Z,24.65
2018-11-06T17:36:24.233Z,25.47
2018-11-06T17:38:57.388Z,26.02
2018-11-06T17:44:03.109Z,46.80
2018-11-06T17:46:36.140Z,30.97
2018-11-06T17:49:11.220Z,24.87
2018-11-06T17:51:44.179Z,23.47
2018-11-06T17:54:17.109Z,25.88
2018-11-06T17:56:52.414Z,24.50
2018-11-06T18:04:28.499Z,24.27
2018-11-06T18:07:01.111Z,24.43
2018-11-06T18:09:34.101Z,23.67
2018-11-06T18:12:07.369Z,23.70
2018-11-06T18:14:40.625Z,28.53
2018-11-06T18:22:25.633Z,23.43
2018-11-06T18:24:59.125Z,22.67
2018-11-06T18:27:32.192Z,23.35
2018-11-06T18:30:05.141Z,22.13
2018-11-06T18:32:38.387Z,23.73
2018-11-06T18:40:18.433Z,72.67
2018-11-06T18:47:54.829Z,23.33
2018-11-06T18:50:27.776Z,23.60
2018-11-06T18:53:00.647Z,23.42
2018-11-06T18:55:33.481Z,22.67
2018-11-06T18:58:06.479Z,22.63
2018-11-06T19:00:39.430Z,23.43
2018-11-06T19:05:43.778Z,24.90
2018-11-06T19:08:16.910Z,22.93
2018-11-06T19:10:50.158Z,21.43
2018-11-06T19:13:23.241Z,21.50
2018-11-06T19:15:56.097Z,21.67
2018-11-06T19:18:29.380Z,20.85
2018-11-06T19:21:02.437Z,31.20
2018-11-06T19:26:06.628Z,21.73
2018-11-06T19:28:39.627Z,20.87
2018-11-06T19:31:12.514Z,21.17
2018-11-06T19:33:45.093Z,20.10
2018-11-06T19:36:18.258Z,20.57
2018-11-06T19:38:51.354Z,21.40
2018-11-06T19:41:24.405Z,22.23
2018-11-06T19:43:57.408Z,21.93
2018-11-06T19:46:30.428Z,26.80
2018-11-06T19:51:35.157Z,21.53
2018-11-06T19:54:08.251Z,22.07
2018-11-06T19:56:41.222Z,22.10
2018-11-06T19:59:14.424Z,21.65
2018-11-06T20:04:18.627Z,44.47
2018-11-06T20:06:51.491Z,24.37
2018-11-06T20:11:55.721Z,22.90
2018-11-06T20:16:59.924Z,22.80
2018-11-06T20:19:32.623Z,23.43
2018-11-06T20:22:05.488Z,24.10
2018-11-06T20:24:40.620Z,23.53
2018-11-06T20:27:13.679Z,22.90
2018-11-06T20:29:46.470Z,26.03
2018-11-06T20:32:19.236Z,24.73
2018-11-06T20:34:52.098Z,23.73
2018-11-06T20:37:25.125Z,26.83
2018-11-06T20:39:58.147Z,24.10
2018-11-06T20:42:31.189Z,24.43
2018-11-06T20:45:04.130Z,23.60
2018-11-06T20:47:39.970Z,23.47
2018-11-06T20:50:24.812Z,24.13
2018-11-06T20:52:57.713Z,24.93
2018-11-06T20:55:30.614Z,23.10
2018-11-06T21:00:39.256Z,24.65
2018-11-06T21:03:12.131Z,22.70
2018-11-06T21:05:45.174Z,23.47
2018-11-06T21:08:18.142Z,23.97
2018-11-06T21:10:52.065Z,24.18
2018-11-06T21:13:24.864Z,24.97
2018-11-06T21:15:57.702Z,23.70
2018-11-06T21:18:30.742Z,31.53
2018-11-06T21:21:03.408Z,30.97
2018-11-06T21:23:36.436Z,23.07
2018-11-06T21:26:09.468Z,23.53
2018-11-06T21:31:13.844Z,24.47
2018-11-06T21:33:46.681Z,25.80
2018-11-06T21:36:19.587Z,25.03
2018-11-06T21:38:52.510Z,24.77
2018-11-06T21:41:25.485Z,23.03
2018-11-06T21:46:29.410Z,26.47
2018-11-06T21:51:34.351Z,25.77
2018-11-06T21:54:07.977Z,25.67
2018-11-06T21:56:40.674Z,26.00
2018-11-06T21:59:13.612Z,26.43
2018-11-06T22:04:17.975Z,25.50
2018-11-06T22:06:51.235Z,26.37
2018-11-06T22:09:24.118Z,26.60
2018-11-06T22:11:57.146Z,26.60
2018-11-06T22:14:30.104Z,27.98
2018-11-06T22:17:03.128Z,27.43
2018-11-06T22:19:36.247Z,27.07
2018-11-06T22:22:09.528Z,28.10
2018-11-06T22:24:42.448Z,27.80
2018-11-06T22:29:46.644Z,25.53
2018-11-06T22:32:19.559Z,25.90
2018-11-06T22:34:52.386Z,27.50
2018-11-06T22:39:56.640Z,23.87
2018-11-06T22:42:29.652Z,25.27
2018-11-06T22:45:02.442Z,26.20
2018-11-06T22:50:07.524Z,25.93
2018-11-06T22:55:11.615Z,25.57
2018-11-06T22:57:44.635Z,25.27
2018-11-06T23:00:41.576Z,25.10
2018-11-06T23:03:16.414Z,24.30
2018-11-06T23:08:30.356Z,24.67
2018-11-06T23:13:34.699Z,24.50
2018-11-06T23:16:07.654Z,25.27
2018-11-06T23:18:40.609Z,23.13
2018-11-06T23:21:13.502Z,24.60
2018-11-06T23:23:46.414Z,24.07
2018-11-06T23:26:19.486Z,25.17
2018-11-06T23:31:27.542Z,24.77
2018-11-06T23:34:02.421Z,26.30
2018-11-06T23:36:35.253Z,24.00
2018-11-06T23:39:10.328Z,24.30
2018-11-06T23:41:43.419Z,26.90
2018-11-06T23:46:47.636Z,22.85
2018-11-06T23:49:20.576Z,24.57
2018-11-06T23:54:24.632Z,23.83
2018-11-06T23:59:28.779Z,23.40
